Dadeville, Alabama
Current Conditions -  °F | °C
As of 12:55 PM on Sunday 23 Nov 2014 (Local Time) from KALX Reporting Station
Light Rain Light Rain  
Wind Chill: 18°   Ceiling: 600
Heat Index: 18°   Visibility: 10mi
Dew Point: 15°   Wind: 6mph
Humidity: 86%   Direction: 110°ESE
Pressure: 29.65"   Gusts: NA
Location:  32.83°N, 85.76°W
Report Text: KALX 231855Z AUTO 11005KT 10SM -RA OVC006 18/15 A2965 RMK AO2 LTG DSNT S P0002 T01750152
Loading
Personal Weather Stations






























Interactive Weather Map New forecast layout! Learn more

10-Day Weather Forecast

Advertisements
Track Severe Weather on mobile